createdAt,value
2019-03-17T00:02:16.379Z,5.20
2019-03-17T00:04:45.991Z,4.80
2019-03-17T00:07:15.343Z,4.27
2019-03-17T00:09:44.967Z,5.60
2019-03-17T00:12:14.358Z,5.67
2019-03-17T00:14:43.951Z,6.20
2019-03-17T00:17:14.561Z,5.30
2019-03-17T00:19:44.095Z,5.80
2019-03-17T00:22:14.419Z,4.80
2019-03-17T00:24:44.412Z,4.30
2019-03-17T00:27:14.293Z,4.87
2019-03-17T00:29:44.249Z,6.43
2019-03-17T00:32:14.385Z,7.00
2019-03-17T00:34:44.677Z,6.67
2019-03-17T00:37:20.753Z,7.10
2019-03-17T00:39:50.128Z,6.97
2019-03-17T00:42:20.072Z,6.28
2019-03-17T00:44:49.439Z,4.63
2019-03-17T00:47:19.083Z,5.37
2019-03-17T00:49:48.447Z,5.07
2019-03-17T00:52:18.098Z,6.30
2019-03-17T00:54:47.479Z,5.27
2019-03-17T00:57:17.418Z,5.67
2019-03-17T00:59:47.079Z,4.80
2019-03-17T01:02:16.435Z,5.63
2019-03-17T01:04:55.718Z,5.70
2019-03-17T01:07:23.355Z,4.70
2019-03-17T01:09:53.285Z,4.03
2019-03-17T01:12:22.616Z,4.50
2019-03-17T01:14:52.188Z,4.63
2019-03-17T01:17:21.849Z,3.53
2019-03-17T01:19:51.309Z,5.30
2019-03-17T01:22:20.667Z,3.90
2019-03-17T01:24:50.588Z,4.77
2019-03-17T01:27:20.404Z,5.30
2019-03-17T01:29:50.419Z,5.97
2019-03-17T01:32:20.427Z,5.03
2019-03-17T01:34:49.802Z,4.70
2019-03-17T01:37:19.474Z,3.40
2019-03-17T01:39:49.566Z,4.90
2019-03-17T01:42:19.226Z,4.33
2019-03-17T01:44:48.593Z,2.87
2019-03-17T01:47:18.572Z,4.62
2019-03-17T01:49:47.934Z,3.60
2019-03-17T01:52:17.918Z,4.87
2019-03-17T01:54:47.628Z,4.43
2019-03-17T01:57:17.270Z,4.20
2019-03-17T01:59:46.641Z,3.83
2019-03-17T02:02:16.584Z,4.12
2019-03-17T02:04:45.955Z,4.00
2019-03-17T02:07:15.647Z,3.53
2019-03-17T02:09:45.303Z,4.42
2019-03-17T02:12:34.178Z,3.47
2019-03-17T02:18:17.800Z,3.70
2019-03-17T02:20:47.370Z,4.73
2019-03-17T02:23:16.719Z,3.60
2019-03-17T02:25:46.374Z,3.50
2019-03-17T02:28:15.851Z,4.47
2019-03-17T02:30:45.473Z,3.40
2019-03-17T02:33:14.879Z,2.97
2019-03-17T02:35:44.451Z,4.50
2019-03-17T02:38:20.197Z,4.07
2019-03-17T02:40:49.600Z,5.10
2019-03-17T02:43:18.965Z,3.00
2019-03-17T02:45:48.488Z,3.60
2019-03-17T02:48:17.854Z,3.43
2019-03-17T02:50:47.459Z,4.00
2019-03-17T02:55:57.551Z,3.55
2019-03-17T02:58:26.916Z,3.63
2019-03-17T03:00:56.622Z,4.10
2019-03-17T03:03:26.054Z,2.83
2019-03-17T03:05:55.973Z,2.60
2019-03-17T03:08:25.767Z,3.30
2019-03-17T03:10:55.117Z,4.03
2019-03-17T03:13:24.627Z,3.50
2019-03-17T03:15:53.979Z,4.20
2019-03-17T03:18:23.653Z,3.87
2019-03-17T03:20:52.992Z,4.10
2019-03-17T03:23:23.003Z,3.60
2019-03-17T03:25:52.660Z,3.58
2019-03-17T03:28:22.003Z,3.77
2019-03-17T03:30:51.743Z,2.57
2019-03-17T03:33:21.133Z,4.10
2019-03-17T03:35:50.702Z,3.50
2019-03-17T03:38:20.344Z,3.00
2019-03-17T03:40:49.842Z,4.23
2019-03-17T03:43:19.184Z,3.50
2019-03-17T03:45:50.196Z,4.10
2019-03-17T03:48:19.826Z,2.95
2019-03-17T03:50:49.188Z,3.20
2019-03-17T03:53:19.308Z,3.70
2019-03-17T03:55:48.847Z,3.13
2019-03-17T03:58:18.202Z,3.27
2019-03-17T04:00:47.833Z,3.63
2019-03-17T04:03:17.183Z,2.87
2019-03-17T04:05:46.713Z,4.07
2019-03-17T04:08:16.353Z,2.80
2019-03-17T04:10:45.850Z,3.10
2019-03-17T04:13:17.116Z,3.53
2019-03-17T04:15:47.046Z,4.30
2019-03-17T04:18:16.978Z,3.70
2019-03-17T04:20:46.643Z,4.55
2019-03-17T04:23:16.285Z,3.30
2019-03-17T04:25:45.969Z,3.70
2019-03-17T04:28:15.310Z,3.40
2019-03-17T04:30:44.822Z,4.00
2019-03-17T04:33:15.152Z,4.58
2019-03-17T04:35:45.115Z,4.70
2019-03-17T04:38:15.187Z,4.28
2019-03-17T04:40:44.846Z,3.60
2019-03-17T04:43:15.260Z,5.47
2019-03-17T04:45:44.900Z,4.53
2019-03-17T04:48:15.530Z,5.30
2019-03-17T04:50:44.882Z,6.30
2019-03-17T04:53:15.215Z,5.00
2019-03-17T04:55:44.559Z,3.73
2019-03-17T04:58:15.265Z,3.62
2019-03-17T05:00:44.947Z,3.37
2019-03-17T05:03:15.272Z,4.80
2019-03-17T05:05:44.939Z,5.70
2019-03-17T05:08:15.279Z,2.98
2019-03-17T05:10:44.945Z,5.35
2019-03-17T05:13:15.406Z,6.00
2019-03-17T05:15:44.930Z,5.77
2019-03-17T05:21:24.861Z,6.60
2019-03-17T05:23:54.573Z,5.03
2019-03-17T05:26:43.562Z,4.73
2019-03-17T05:29:13.137Z,5.63
2019-03-17T05:31:42.486Z,5.20
2019-03-17T05:34:12.123Z,4.90
2019-03-17T05:36:41.490Z,5.57
2019-03-17T05:39:11.095Z,6.47
2019-03-17T05:41:40.473Z,7.60
2019-03-17T05:44:10.137Z,6.85
2019-03-17T05:46:39.491Z,6.53
2019-03-17T05:49:09.514Z,6.20
2019-03-17T05:51:39.202Z,5.00
2019-03-17T05:54:08.563Z,4.83
2019-03-17T05:56:38.097Z,5.90
2019-03-17T05:59:07.446Z,6.40
2019-03-17T06:01:37.108Z,4.05
2019-03-17T06:04:06.465Z,6.43
2019-03-17T06:06:55.461Z,5.90
2019-03-17T06:09:25.135Z,5.85
2019-03-17T06:11:54.498Z,5.67
2019-03-17T06:14:24.161Z,5.50
2019-03-17T06:16:53.527Z,4.60
2019-03-17T06:19:23.177Z,6.45
2019-03-17T06:21:52.546Z,6.60
2019-03-17T06:24:22.190Z,4.40
2019-03-17T06:26:51.551Z,6.93
2019-03-17T06:29:21.158Z,6.47
2019-03-17T06:31:50.871Z,5.67
2019-03-17T06:34:20.518Z,6.58
2019-03-17T06:36:50.174Z,7.10
2019-03-17T06:39:32.087Z,7.40
2019-03-17T06:42:01.574Z,7.13
2019-03-17T06:44:30.952Z,6.30
2019-03-17T06:47:00.473Z,8.17
2019-03-17T06:49:29.822Z,8.30
2019-03-17T06:51:59.421Z,8.27
2019-03-17T06:54:29.049Z,6.90
2019-03-17T06:56:58.418Z,7.30
2019-03-17T06:59:28.059Z,8.77
2019-03-17T07:01:57.528Z,8.93
2019-03-17T07:04:26.921Z,7.37
2019-03-17T07:07:15.857Z,4.07
2019-03-17T07:09:47.168Z,5.30
2019-03-17T07:12:16.749Z,5.60
2019-03-17T07:14:46.450Z,7.40
2019-03-17T07:17:15.891Z,6.00
2019-03-17T07:19:45.490Z,4.87
2019-03-17T07:22:15.860Z,7.25
2019-03-17T07:24:45.408Z,8.33
2019-03-17T07:27:15.825Z,7.62
2019-03-17T07:29:45.454Z,5.93
2019-03-17T07:32:35.160Z,6.08
2019-03-17T07:38:27.954Z,4.90
2019-03-17T07:40:57.646Z,0.50
2019-03-17T07:43:27.111Z,0.87
2019-03-17T07:45:56.622Z,0.80
2019-03-17T07:48:25.980Z,0.40
2019-03-17T07:50:55.497Z,0.50
2019-03-17T07:53:25.453Z,0.70
2019-03-17T07:55:54.793Z,0.60
2019-03-17T07:58:24.164Z,0.70
2019-03-17T08:00:53.870Z,0.67
2019-03-17T08:03:23.517Z,0.53
2019-03-17T08:05:52.868Z,0.90
2019-03-17T08:08:24.335Z,0.50
2019-03-17T08:10:53.759Z,0.93
2019-03-17T08:13:23.124Z,1.43
2019-03-17T08:16:11.929Z,2.00
2019-03-17T08:18:41.582Z,1.00
2019-03-17T08:21:10.935Z,1.00
2019-03-17T08:23:40.625Z,0.80
2019-03-17T08:26:09.977Z,0.70
2019-03-17T08:28:40.967Z,1.20
2019-03-17T08:31:10.601Z,0.90
2019-03-17T08:33:40.302Z,1.07
2019-03-17T08:36:09.737Z,0.73
2019-03-17T08:38:39.094Z,0.80
2019-03-17T08:41:08.741Z,0.95
2019-03-17T08:43:39.884Z,0.77
2019-03-17T08:46:09.292Z,1.10
2019-03-17T08:48:38.776Z,1.10
2019-03-17T08:57:30.718Z,1.40
2019-03-17T09:00:00.069Z,0.80
2019-03-17T09:02:29.745Z,0.70
2019-03-17T09:04:59.099Z,1.00
2019-03-17T09:07:28.469Z,1.47
2019-03-17T09:09:57.931Z,0.60
2019-03-17T09:12:27.281Z,0.83
2019-03-17T09:14:56.840Z,1.20
2019-03-17T09:21:00.049Z,1.40
2019-03-17T09:23:30.000Z,0.93
2019-03-17T09:25:59.343Z,0.87
2019-03-17T09:28:28.995Z,1.00
2019-03-17T09:30:58.334Z,0.93
2019-03-17T09:33:28.000Z,1.35
2019-03-17T09:35:57.366Z,1.27
2019-03-17T09:38:27.161Z,7.45
2019-03-17T09:40:56.869Z,10.30
2019-03-17T09:46:35.597Z,10.27
2019-03-17T09:49:17.702Z,3.20
2019-03-17T09:51:47.075Z,1.03
2019-03-17T09:54:16.448Z,1.53
2019-03-17T09:56:58.541Z,1.30
2019-03-17T09:59:28.203Z,1.30
2019-03-17T10:01:57.560Z,1.40
2019-03-17T10:04:39.213Z,1.27
2019-03-17T10:07:08.567Z,1.60
2019-03-17T10:09:38.012Z,1.30
2019-03-17T10:12:07.357Z,1.80
2019-03-17T10:14:37.037Z,0.97
2019-03-17T10:17:06.384Z,1.40
2019-03-17T10:19:35.755Z,1.23
2019-03-17T10:22:05.110Z,1.87
2019-03-17T10:26:59.337Z,2.30
2019-03-17T10:29:28.987Z,1.25
2019-03-17T10:31:58.325Z,2.00
2019-03-17T10:34:27.978Z,1.70
2019-03-17T10:36:57.671Z,1.97
2019-03-17T10:39:27.330Z,2.60
2019-03-17T10:41:56.678Z,0.90
2019-03-17T10:44:26.256Z,1.97
2019-03-17T10:46:55.600Z,2.00
2019-03-17T10:49:25.256Z,1.53
2019-03-17T10:51:54.906Z,2.00
2019-03-17T10:54:24.510Z,2.05
2019-03-17T10:56:53.856Z,1.70
2019-03-17T10:59:23.522Z,1.60
2019-03-17T11:01:53.177Z,1.85
2019-03-17T11:04:22.541Z,1.40
2019-03-17T11:09:48.171Z,1.70
2019-03-17T11:12:17.805Z,2.00
2019-03-17T11:14:47.700Z,1.80
2019-03-17T11:17:17.334Z,1.27
2019-03-17T11:19:48.380Z,1.53
2019-03-17T11:22:17.742Z,1.50
2019-03-17T11:24:59.493Z,1.50
2019-03-17T11:27:29.448Z,3.22
2019-03-17T11:29:58.799Z,19.43
2019-03-17T11:35:49.505Z,3.00
2019-03-17T11:38:19.142Z,4.92
2019-03-17T11:40:48.813Z,7.20
2019-03-17T11:43:18.878Z,6.70
2019-03-17T11:46:00.428Z,1.17
2019-03-17T11:48:29.825Z,0.60
2019-03-17T11:50:59.356Z,1.17
2019-03-17T11:53:29.041Z,0.60
2019-03-17T11:55:58.415Z,14.27
2019-03-17T11:58:47.396Z,9.20
2019-03-17T12:01:18.011Z,4.80
2019-03-17T12:04:07.005Z,1.00
2019-03-17T12:06:36.548Z,0.90
2019-03-17T12:12:28.822Z,0.90
2019-03-17T12:14:58.478Z,1.05
2019-03-17T12:17:28.294Z,1.00
2019-03-17T12:19:58.018Z,0.77
2019-03-17T12:22:27.662Z,1.50
2019-03-17T12:24:57.031Z,1.30
2019-03-17T12:27:26.584Z,1.13
2019-03-17T12:29:55.951Z,1.07
2019-03-17T12:32:25.597Z,1.60
2019-03-17T12:34:54.963Z,1.40
2019-03-17T12:37:24.854Z,0.90
2019-03-17T12:40:02.423Z,0.63
2019-03-17T12:42:30.971Z,0.73
2019-03-17T12:45:20.042Z,1.10
2019-03-17T12:47:49.701Z,1.20
2019-03-17T12:53:21.127Z,1.27
2019-03-17T12:55:50.880Z,1.70
2019-03-17T12:58:20.887Z,1.00
2019-03-17T13:00:50.262Z,0.87
2019-03-17T13:03:19.931Z,1.20
2019-03-17T13:05:49.635Z,1.00
2019-03-17T13:08:19.033Z,1.30
2019-03-17T13:10:48.743Z,0.87
2019-03-17T13:13:18.640Z,0.60
2019-03-17T13:15:48.056Z,0.40
2019-03-17T13:18:17.711Z,0.47
2019-03-17T13:21:06.413Z,0.70
2019-03-17T13:23:36.019Z,0.50
2019-03-17T13:26:05.666Z,0.55
2019-03-17T13:28:35.019Z,0.40
2019-03-17T13:31:04.388Z,0.50
2019-03-17T13:33:33.857Z,0.40
2019-03-17T13:36:03.228Z,0.50
2019-03-17T13:38:32.867Z,0.60
2019-03-17T13:41:02.247Z,0.80
2019-03-17T13:43:32.024Z,0.80
2019-03-17T13:46:01.385Z,0.50
2019-03-17T13:48:31.274Z,0.60
2019-03-17T13:51:01.147Z,1.10
2019-03-17T13:53:30.828Z,0.70
2019-03-17T13:56:00.138Z,1.33
2019-03-17T13:58:29.505Z,0.80
2019-03-17T14:00:59.002Z,1.07
2019-03-17T14:03:28.372Z,0.80
2019-03-17T14:05:57.960Z,1.03
2019-03-17T14:08:27.320Z,1.10
2019-03-17T14:10:57.099Z,0.67
2019-03-17T14:13:26.706Z,0.70
2019-03-17T14:15:56.315Z,1.03
2019-03-17T14:18:25.973Z,1.57
2019-03-17T14:20:55.319Z,1.80
2019-03-17T14:23:24.981Z,1.70
2019-03-17T14:25:54.324Z,0.77
2019-03-17T14:28:23.999Z,2.00
2019-03-17T14:30:53.370Z,0.70
2019-03-17T14:33:23.014Z,1.32
2019-03-17T14:35:52.619Z,1.87
2019-03-17T14:38:22.283Z,2.40
2019-03-17T14:40:54.642Z,2.70
2019-03-17T14:43:28.414Z,3.33
2019-03-17T14:45:58.120Z,1.20
2019-03-17T14:48:27.492Z,1.27
2019-03-17T14:50:57.092Z,1.37
2019-03-17T14:53:26.535Z,3.10
2019-03-17T14:56:08.593Z,1.90
2019-03-17T14:58:38.092Z,2.50
2019-03-17T15:01:07.469Z,1.50
2019-03-17T15:03:37.127Z,1.37
2019-03-17T15:06:06.481Z,1.27
2019-03-17T15:08:36.162Z,1.03
2019-03-17T15:11:06.376Z,1.47
2019-03-17T15:13:56.443Z,1.63
2019-03-17T15:16:26.086Z,2.00
2019-03-17T15:18:55.444Z,1.00
2019-03-17T15:21:25.082Z,1.75
2019-03-17T15:23:54.444Z,1.50
2019-03-17T15:26:24.137Z,1.30
2019-03-17T15:28:53.485Z,1.07
2019-03-17T15:31:23.439Z,1.12
2019-03-17T15:33:53.585Z,1.30
2019-03-17T15:36:23.232Z,1.00
2019-03-17T15:38:52.592Z,1.00
2019-03-17T15:41:22.227Z,1.12
2019-03-17T15:43:51.584Z,0.77
2019-03-17T15:46:21.481Z,2.42
2019-03-17T15:48:50.835Z,1.20
2019-03-17T15:51:21.039Z,0.83
2019-03-17T15:53:57.288Z,1.40
2019-03-17T15:56:26.712Z,1.47
2019-03-17T15:58:56.132Z,1.20
2019-03-17T16:01:25.539Z,0.93
2019-03-17T16:03:54.886Z,1.30
2019-03-17T16:06:24.542Z,1.50
2019-03-17T16:08:54.194Z,1.40
2019-03-17T16:11:30.971Z,1.17
2019-03-17T16:14:00.225Z,1.47
2019-03-17T16:16:29.570Z,1.20
2019-03-17T16:18:58.924Z,1.10
2019-03-17T16:21:28.556Z,1.45
2019-03-17T16:23:58.203Z,1.42
2019-03-17T16:26:27.545Z,1.73
2019-03-17T16:28:57.198Z,1.30
2019-03-17T16:31:26.834Z,1.60
2019-03-17T16:33:56.481Z,1.50
2019-03-17T16:36:25.825Z,1.77
2019-03-17T16:38:55.686Z,1.50
2019-03-17T16:41:25.329Z,2.00
2019-03-17T16:43:54.686Z,1.67
2019-03-17T16:46:24.053Z,1.40
2019-03-17T16:49:12.662Z,3.30
2019-03-17T16:51:42.269Z,2.30
2019-03-17T16:54:11.634Z,2.87
2019-03-17T16:56:42.609Z,1.97
2019-03-17T16:59:11.971Z,1.70
2019-03-17T17:01:41.381Z,1.90
2019-03-17T17:04:10.767Z,1.60
2019-03-17T17:06:40.418Z,1.70
2019-03-17T17:09:09.773Z,2.20
2019-03-17T17:11:39.452Z,2.87
2019-03-17T17:14:08.811Z,1.30
2019-03-17T17:16:38.149Z,1.20
2019-03-17T17:19:07.645Z,1.57
2019-03-17T17:21:37.279Z,1.40
2019-03-17T17:24:06.629Z,0.93
2019-03-17T17:26:37.592Z,1.30
2019-03-17T17:29:26.178Z,2.00
2019-03-17T17:31:55.718Z,1.97
2019-03-17T17:34:25.479Z,1.07
2019-03-17T17:36:54.799Z,1.37
2019-03-17T17:39:24.465Z,1.10
2019-03-17T17:41:54.182Z,1.40
2019-03-17T17:44:23.872Z,1.17
2019-03-17T17:46:53.512Z,1.40
2019-03-17T17:49:22.950Z,1.67
2019-03-17T17:51:53.940Z,1.73
2019-03-17T17:57:18.019Z,1.70
2019-03-17T18:00:00.405Z,1.83
2019-03-17T18:02:30.296Z,1.33
2019-03-17T18:05:00.047Z,1.50
2019-03-17T18:07:29.669Z,1.10
2019-03-17T18:09:59.040Z,0.97
2019-03-17T18:12:28.686Z,1.20
2019-03-17T18:14:58.063Z,1.27
2019-03-17T18:17:27.987Z,1.50
2019-03-17T18:19:57.358Z,1.40
2019-03-17T18:22:26.999Z,1.57
2019-03-17T18:24:56.657Z,1.20
2019-03-17T18:27:26.042Z,1.53
2019-03-17T18:29:55.710Z,1.55
2019-03-17T18:32:25.348Z,0.77
2019-03-17T18:35:07.313Z,1.10
2019-03-17T18:37:37.143Z,1.40
2019-03-17T18:43:37.027Z,1.70
2019-03-17T18:46:06.392Z,1.17
2019-03-17T18:48:35.843Z,1.63
2019-03-17T18:51:07.079Z,0.73
2019-03-17T18:53:36.430Z,1.63
2019-03-17T18:56:18.188Z,2.13
2019-03-17T18:59:00.086Z,1.70
2019-03-17T19:01:29.565Z,1.83
2019-03-17T19:03:58.945Z,2.10
2019-03-17T19:06:28.297Z,4.28
2019-03-17T19:08:57.990Z,16.55
2019-03-17T19:11:27.514Z,11.73
2019-03-17T19:14:16.621Z,3.73
2019-03-17T19:16:45.986Z,2.40
2019-03-17T19:19:15.355Z,2.37
2019-03-17T19:21:44.995Z,2.72
2019-03-17T19:24:14.353Z,2.50
2019-03-17T19:26:55.816Z,2.92
2019-03-17T19:29:25.356Z,1.90
2019-03-17T19:31:55.014Z,1.92
2019-03-17T19:34:24.366Z,2.20
2019-03-17T19:36:54.027Z,2.85
2019-03-17T19:39:23.415Z,2.27
2019-03-17T19:41:53.059Z,1.98
2019-03-17T19:44:22.432Z,1.93
2019-03-17T19:46:52.073Z,1.90
2019-03-17T19:49:21.733Z,1.60
2019-03-17T19:52:03.314Z,2.03
2019-03-17T19:54:32.684Z,1.90
2019-03-17T19:57:21.575Z,1.60
2019-03-17T20:00:04.141Z,2.37
2019-03-17T20:02:33.501Z,1.70
2019-03-17T20:05:03.633Z,1.83
2019-03-17T20:07:33.275Z,2.00
2019-03-17T20:10:02.650Z,1.83
2019-03-17T20:12:32.561Z,1.90
2019-03-17T20:15:02.579Z,1.57
2019-03-17T20:17:33.550Z,2.20
2019-03-17T20:23:21.406Z,2.20
2019-03-17T20:25:55.471Z,1.83
2019-03-17T20:28:25.130Z,1.75
2019-03-17T20:30:54.474Z,2.43
2019-03-17T20:33:24.478Z,2.85
2019-03-17T20:35:53.822Z,3.40
2019-03-17T20:38:23.485Z,4.42
2019-03-17T20:40:53.163Z,11.43
2019-03-17T20:43:34.171Z,6.63
2019-03-17T20:46:12.695Z,2.77
2019-03-17T20:48:42.289Z,2.53
2019-03-17T20:51:11.653Z,2.23
2019-03-17T20:53:41.663Z,2.15
2019-03-17T20:56:11.338Z,2.50
2019-03-17T20:58:40.708Z,2.33
2019-03-17T21:04:06.008Z,2.10
2019-03-17T21:06:35.646Z,2.08
2019-03-17T21:09:45.061Z,2.17
2019-03-17T21:12:14.581Z,1.73
2019-03-17T21:14:43.950Z,1.67
2019-03-17T21:17:14.227Z,1.90
2019-03-17T21:23:05.519Z,1.90
2019-03-17T21:25:35.162Z,1.23
2019-03-17T21:28:04.623Z,2.50
2019-03-17T21:33:36.676Z,1.37
2019-03-17T21:36:06.058Z,1.70
2019-03-17T21:38:35.589Z,1.63
2019-03-17T21:44:19.920Z,1.83
2019-03-17T21:46:49.832Z,1.63
2019-03-17T21:49:19.510Z,1.50
2019-03-17T21:51:48.865Z,1.80
2019-03-17T21:54:19.173Z,2.10
2019-03-17T21:57:00.527Z,1.90
2019-03-17T21:59:30.200Z,1.70
2019-03-17T22:02:12.435Z,2.02
2019-03-17T22:04:38.045Z,1.80
2019-03-17T22:07:07.823Z,1.53
2019-03-17T22:09:37.145Z,1.20
2019-03-17T22:12:06.750Z,1.40
2019-03-17T22:14:36.097Z,1.10
2019-03-17T22:17:05.657Z,1.73
2019-03-17T22:19:35.005Z,1.70
2019-03-17T22:22:04.669Z,1.40
2019-03-17T22:24:34.025Z,1.80
2019-03-17T22:27:03.677Z,1.73
2019-03-17T22:29:33.024Z,1.80
2019-03-17T22:32:02.698Z,1.50
2019-03-17T22:34:32.338Z,1.43
2019-03-17T22:37:01.902Z,1.97
2019-03-17T22:39:31.256Z,2.23
2019-03-17T22:42:00.791Z,1.67
2019-03-17T22:44:30.238Z,1.90
2019-03-17T22:46:59.786Z,2.10
2019-03-17T22:49:35.225Z,2.10
2019-03-17T22:52:04.908Z,1.40
2019-03-17T22:54:34.255Z,1.40
2019-03-17T22:57:03.814Z,2.03
2019-03-17T22:59:33.174Z,2.20
2019-03-17T23:04:58.213Z,1.70
2019-03-17T23:07:27.897Z,2.08
2019-03-17T23:09:57.272Z,1.60
2019-03-17T23:12:26.945Z,1.35
2019-03-17T23:14:56.290Z,2.00
2019-03-17T23:17:25.949Z,1.40
2019-03-17T23:19:55.303Z,2.67
2019-03-17T23:22:24.974Z,3.35
2019-03-17T23:24:54.163Z,1.20
2019-03-17T23:27:23.956Z,1.37
2019-03-17T23:29:53.317Z,1.87
2019-03-17T23:32:23.469Z,1.85
2019-03-17T23:34:53.102Z,1.93
2019-03-17T23:37:22.452Z,1.60
2019-03-17T23:39:52.085Z,1.20
2019-03-17T23:42:21.452Z,1.53
2019-03-17T23:44:51.052Z,2.50
2019-03-17T23:47:20.707Z,1.47
2019-03-17T23:49:50.416Z,2.00
2019-03-17T23:52:20.331Z,2.13
2019-03-17T23:54:49.994Z,2.15
2019-03-17T23:57:19.435Z,1.43
2019-03-17T23:59:49.081Z,2.17
